ěÝzenÝ letovÚho provozu ╚eskÚ republiky
Letiste: LKCV Aktualizace: 10.08.2020 04:00:24  UTC
 METAR LKCV 10.08. 04:00 ...
METAR LKCV 100400Z 13003KT CAVOK 18/16 Q1017 NOSIG RMK BLU BLU=
 TAF LKCV 09.08. 23:00 ...
TAF LKCV 092300Z 1000/1100 VRB02KT CAVOK      BECMG 1009/1011 08007KT      TEMPO 1010/1100 08014KT 7000 SHRA BKN035TCU      PROB40 TEMPO 1011/1100 05018G28KT 3000 TSRA BKN020CB      BECMG 1021/1023 VRB02KT=